createdAt,value
2023-04-18T00:04:18.243Z,7.07
2023-04-18T00:09:11.892Z,7.47
2023-04-18T00:14:08.247Z,7.28
2023-04-18T00:19:04.679Z,7.65
2023-04-18T00:23:57.895Z,7.40
2023-04-18T00:28:52.458Z,7.38
2023-04-18T00:33:45.725Z,7.07
2023-04-18T00:38:40.857Z,7.63
2023-04-18T00:43:38.102Z,7.50
2023-04-18T00:48:31.849Z,6.80
2023-04-18T00:53:25.477Z,7.55
2023-04-18T00:58:22.559Z,7.30
2023-04-18T01:03:20.818Z,6.88
2023-04-18T01:08:14.031Z,6.63
2023-04-18T01:13:14.622Z,7.35
2023-04-18T01:18:09.594Z,7.05
2023-04-18T01:23:05.337Z,7.28
2023-04-18T01:28:04.735Z,7.10
2023-04-18T01:32:57.947Z,7.53
2023-04-18T01:37:53.723Z,8.18
2023-04-18T01:42:51.428Z,8.13
2023-04-18T01:47:51.416Z,7.68
2023-04-18T01:52:44.828Z,8.18
2023-04-18T01:57:38.443Z,8.07
2023-04-18T02:02:36.505Z,7.72
2023-04-18T02:07:33.779Z,8.45
2023-04-18T02:12:31.509Z,7.63
2023-04-18T02:17:25.414Z,7.55
2023-04-18T02:22:22.953Z,7.75
2023-04-18T02:27:17.904Z,8.15
2023-04-18T02:32:11.695Z,7.60
2023-04-18T02:37:05.020Z,7.63
2023-04-18T02:42:04.141Z,7.47
2023-04-18T02:46:58.756Z,7.95
2023-04-18T02:51:57.694Z,7.68
2023-04-18T02:56:50.789Z,7.28
2023-04-18T03:01:51.592Z,8.10
2023-04-18T03:06:49.079Z,6.70
2023-04-18T03:11:43.427Z,6.70
2023-04-18T03:16:36.851Z,7.20
2023-04-18T03:21:32.655Z,7.15
2023-04-18T03:26:29.240Z,6.75
2023-04-18T03:31:23.717Z,6.70
2023-04-18T03:36:18.472Z,6.85
2023-04-18T03:41:12.470Z,7.95
2023-04-18T03:46:07.195Z,8.05
2023-04-18T03:51:00.926Z,8.48
2023-04-18T03:55:54.355Z,8.70
2023-04-18T04:00:51.902Z,8.48
2023-04-18T04:05:47.177Z,8.68
2023-04-18T04:10:42.329Z,8.65
2023-04-18T04:15:38.248Z,9.00
2023-04-18T04:20:33.554Z,8.38
2023-04-18T04:25:36.646Z,9.75
2023-04-18T04:30:35.108Z,9.85
2023-04-18T04:35:28.963Z,9.73
2023-04-18T04:40:23.076Z,9.93
2023-04-18T04:45:23.484Z,9.95
2023-04-18T04:50:19.865Z,10.10
2023-04-18T04:55:13.226Z,10.80
2023-04-18T05:00:09.063Z,10.95
2023-04-18T05:05:03.935Z,15.65
2023-04-18T05:09:56.982Z,23.95
2023-04-18T05:14:52.899Z,12.73
2023-04-18T05:19:46.168Z,12.73
2023-04-18T05:24:41.287Z,16.58
2023-04-18T05:29:34.678Z,12.15
2023-04-18T05:34:27.796Z,11.68
2023-04-18T05:39:21.045Z,12.73
2023-04-18T05:44:18.423Z,11.90
2023-04-18T05:49:11.835Z,12.82
2023-04-18T05:54:05.601Z,12.68
2023-04-18T05:58:59.338Z,11.75
2023-04-18T06:03:53.956Z,11.05
2023-04-18T06:08:47.377Z,10.82
2023-04-18T06:13:41.065Z,10.15
2023-04-18T06:18:37.011Z,10.45
2023-04-18T06:23:31.657Z,9.15
2023-04-18T06:28:25.132Z,10.55
2023-04-18T06:33:20.456Z,9.52
2023-04-18T06:38:13.642Z,8.70
2023-04-18T06:43:08.309Z,9.05
2023-04-18T06:48:04.461Z,8.10
2023-04-18T06:53:00.605Z,10.05
2023-04-18T06:57:54.314Z,8.68
2023-04-18T07:02:49.664Z,9.30
2023-04-18T07:07:50.940Z,9.48
2023-04-18T07:12:44.131Z,10.10
2023-04-18T07:17:37.428Z,10.27
2023-04-18T07:22:32.166Z,9.23
2023-04-18T07:27:26.041Z,10.05
2023-04-18T07:32:23.196Z,9.05
2023-04-18T07:37:18.401Z,9.55
2023-04-18T07:42:12.973Z,9.73
2023-04-18T07:47:10.088Z,9.40
2023-04-18T07:52:03.580Z,9.02
2023-04-18T07:56:56.793Z,9.07
2023-04-18T08:01:52.389Z,8.68
2023-04-18T08:06:45.681Z,8.90
2023-04-18T08:11:39.114Z,9.35
2023-04-18T08:16:32.504Z,8.07
2023-04-18T08:21:27.253Z,8.25
2023-04-18T08:26:21.987Z,8.70
2023-04-18T08:31:15.398Z,8.07
2023-04-18T08:36:14.398Z,8.02
2023-04-18T08:41:09.892Z,7.78
2023-04-18T08:46:03.226Z,8.32
2023-04-18T08:50:59.136Z,9.25
2023-04-18T08:55:58.064Z,9.18
2023-04-18T09:00:53.453Z,7.97
2023-04-18T09:06:11.616Z,8.70
2023-04-18T09:11:29.940Z,9.68
2023-04-18T09:16:25.076Z,10.90
2023-04-18T09:21:19.921Z,8.07
2023-04-18T09:26:13.661Z,8.10
2023-04-18T09:31:11.923Z,7.82
2023-04-18T09:36:20.943Z,8.88
2023-04-18T09:41:15.878Z,8.00
2023-04-18T09:46:09.895Z,7.28
2023-04-18T09:51:07.627Z,7.82
2023-04-18T09:56:04.218Z,7.78
2023-04-18T10:00:58.127Z,7.75
2023-04-18T10:05:52.355Z,7.88
2023-04-18T10:10:45.686Z,7.68
2023-04-18T10:15:42.331Z,8.57
2023-04-18T10:20:37.128Z,8.52
2023-04-18T10:25:51.500Z,8.65
2023-04-18T10:30:54.593Z,8.50
2023-04-18T10:36:00.191Z,8.05
2023-04-18T10:41:16.925Z,9.63
2023-04-18T10:46:30.353Z,8.13
2023-04-18T10:51:24.883Z,8.25
2023-04-18T10:56:20.991Z,8.20
2023-04-18T11:01:17.205Z,6.93
2023-04-18T11:06:10.543Z,8.13
2023-04-18T11:11:07.056Z,7.10
2023-04-18T11:16:00.377Z,7.20
2023-04-18T11:20:55.488Z,6.45
2023-04-18T11:25:52.037Z,6.57
2023-04-18T11:30:45.260Z,7.35
2023-04-18T11:35:42.280Z,7.25
2023-04-18T11:40:37.315Z,8.35
2023-04-18T11:45:33.970Z,7.43
2023-04-18T11:50:27.911Z,7.35
2023-04-18T11:55:24.651Z,6.90
2023-04-18T12:00:21.506Z,6.95
2023-04-18T12:05:26.623Z,7.70
2023-04-18T12:10:29.848Z,7.43
2023-04-18T12:15:27.345Z,7.05
2023-04-18T12:20:24.884Z,7.53
2023-04-18T12:25:27.350Z,7.60
2023-04-18T12:30:22.179Z,6.68
2023-04-18T12:35:17.022Z,7.07
2023-04-18T12:40:11.145Z,7.07
2023-04-18T12:45:07.835Z,6.80
2023-04-18T12:50:01.113Z,6.95
2023-04-18T12:55:02.022Z,7.47
2023-04-18T12:59:55.268Z,6.60
2023-04-18T13:04:48.856Z,7.65
2023-04-18T13:09:56.143Z,7.60
2023-04-18T13:14:59.585Z,7.07
2023-04-18T13:19:59.020Z,6.40
2023-04-18T13:24:52.391Z,7.30
2023-04-18T13:29:46.930Z,6.97
2023-04-18T13:34:46.555Z,6.65
2023-04-18T13:39:40.744Z,6.70
2023-04-18T13:44:34.317Z,6.35
2023-04-18T13:49:28.383Z,7.53
2023-04-18T13:54:26.653Z,7.38
2023-04-18T13:59:31.240Z,7.72
2023-04-18T14:04:27.043Z,8.73
2023-04-18T14:09:23.184Z,8.57
2023-04-18T14:14:16.478Z,8.38
2023-04-18T14:19:10.479Z,8.43
2023-04-18T14:24:04.330Z,7.50
2023-04-18T14:29:03.295Z,7.07
2023-04-18T14:40:35.652Z,7.57
2023-04-18T14:45:35.770Z,7.65
2023-04-18T14:50:32.097Z,9.30
2023-04-18T14:55:25.625Z,7.72
2023-04-18T15:00:19.569Z,7.20
2023-04-18T15:05:14.734Z,8.55
2023-04-18T15:10:12.711Z,7.18
2023-04-18T15:15:07.173Z,8.13
2023-04-18T15:20:10.242Z,7.00
2023-04-18T15:25:05.931Z,8.00
2023-04-18T15:29:59.260Z,8.05
2023-04-18T15:34:52.890Z,7.65
2023-04-18T15:39:49.421Z,9.10
2023-04-18T15:44:44.192Z,9.10
2023-04-18T15:49:37.357Z,14.85
2023-04-18T15:54:30.546Z,8.68
2023-04-18T15:59:23.775Z,9.30
2023-04-18T16:04:21.736Z,8.90
2023-04-18T16:09:17.766Z,7.70
2023-04-18T16:14:11.000Z,9.43
2023-04-18T16:19:04.479Z,8.88
2023-04-18T16:23:59.295Z,8.65
2023-04-18T16:28:52.824Z,8.05
2023-04-18T16:33:46.370Z,9.00
2023-04-18T16:38:39.622Z,10.43
2023-04-18T16:43:36.552Z,10.75
2023-04-18T16:48:30.229Z,14.18
2023-04-18T16:53:24.023Z,11.27
2023-04-18T16:58:17.287Z,12.18
2023-04-18T17:03:11.871Z,12.13
2023-04-18T17:08:05.378Z,11.23
2023-04-18T17:12:59.241Z,9.45
2023-04-18T17:17:52.573Z,9.50
2023-04-18T17:22:49.445Z,9.98
2023-04-18T17:27:45.856Z,10.65
2023-04-18T17:32:43.016Z,11.68
2023-04-18T17:37:36.637Z,10.48
2023-04-18T17:42:31.224Z,10.20
2023-04-18T17:47:24.476Z,9.40
2023-04-18T17:52:18.122Z,10.35
2023-04-18T17:57:11.676Z,8.45
2023-04-18T18:02:06.399Z,8.63
2023-04-18T18:07:00.136Z,7.03
2023-04-18T18:11:55.808Z,7.70
2023-04-18T18:16:53.236Z,7.80
2023-04-18T18:21:50.234Z,6.35
2023-04-18T18:26:43.652Z,5.93
2023-04-18T18:31:37.024Z,6.05
2023-04-18T18:36:30.350Z,5.82
2023-04-18T18:41:25.094Z,5.35
2023-04-18T18:46:18.680Z,6.60
2023-04-18T18:51:12.312Z,5.80
2023-04-18T18:56:07.984Z,6.25
2023-04-18T19:01:03.500Z,6.05
2023-04-18T19:05:56.973Z,10.05
2023-04-18T19:10:50.756Z,6.50
2023-04-18T19:15:47.719Z,7.15
2023-04-18T19:20:42.684Z,6.38
2023-04-18T19:25:40.013Z,6.10
2023-04-18T19:30:33.362Z,6.28
2023-04-18T19:35:26.678Z,6.53
2023-04-18T19:40:23.769Z,6.35
2023-04-18T19:45:18.704Z,6.47
2023-04-18T19:50:12.529Z,7.28
2023-04-18T19:55:06.365Z,9.20
2023-04-18T20:00:03.726Z,6.28
2023-04-18T20:05:06.910Z,6.35
2023-04-18T20:10:00.598Z,6.78
2023-04-18T20:14:56.077Z,6.75
2023-04-18T20:19:51.104Z,6.78
2023-04-18T20:24:45.097Z,6.88
2023-04-18T20:29:38.341Z,7.55
2023-04-18T20:34:34.313Z,7.13
2023-04-18T20:39:29.292Z,7.70
2023-04-18T20:44:22.688Z,7.75
2023-04-18T20:49:16.498Z,8.38
2023-04-18T20:54:09.869Z,7.97
2023-04-18T20:59:07.850Z,8.10
2023-04-18T21:04:04.061Z,7.50
2023-04-18T21:08:57.275Z,7.30
2023-04-18T21:13:50.506Z,7.85
2023-04-18T21:18:49.084Z,8.23
2023-04-18T21:23:52.152Z,8.10
2023-04-18T21:29:07.870Z,8.15
2023-04-18T21:34:05.037Z,7.85
2023-04-18T21:39:00.543Z,6.65
2023-04-18T21:43:57.263Z,7.82
2023-04-18T21:48:50.504Z,7.82
2023-04-18T21:53:45.161Z,7.88
2023-04-18T21:58:38.276Z,7.63
2023-04-18T22:03:31.701Z,7.47
2023-04-18T22:08:25.853Z,7.70
2023-04-18T22:13:23.594Z,8.00
2023-04-18T22:18:19.469Z,8.05
2023-04-18T22:23:12.797Z,7.80
2023-04-18T22:28:06.287Z,7.80
2023-04-18T22:33:00.996Z,8.18
2023-04-18T22:37:54.346Z,7.80
2023-04-18T22:42:49.118Z,7.88
2023-04-18T22:47:42.398Z,8.10
2023-04-18T22:52:37.260Z,7.88
2023-04-18T22:57:30.437Z,8.25
2023-04-18T23:02:25.644Z,8.80
2023-04-18T23:07:18.917Z,8.93
2023-04-18T23:12:13.475Z,8.48
2023-04-18T23:17:07.668Z,8.20
2023-04-18T23:22:01.192Z,8.70
2023-04-18T23:26:54.303Z,9.68
2023-04-18T23:31:48.958Z,9.18
2023-04-18T23:36:42.420Z,9.23
2023-04-18T23:41:35.689Z,9.27
2023-04-18T23:46:29.043Z,8.98
2023-04-18T23:51:23.571Z,8.90
2023-04-18T23:56:16.644Z,9.70
